Plato — 8PRX — position and weather

sailwx.info

Track history (hours):
 
Tides and Currents Weather Stations Pressure Air Temp Water Temp Dewpoint Dewpoint Depression Visibility Wind Speed Wind Dir Waves Ship Positions

Plato

Last reported at 2014-Oct-24 20:33 UTC. Time now 2014-Oct-24 21:29 UTC.
Position N 56°16' E 012°25'.

Length 88 m; draft 4.3 m.

Type: Ship. MMSI: 314189000.

Date/timePositionNaut miles runAvg speedWind from/ knotsBaromVisibWave heightAir tempDewpointWater temp
2014-Oct-24 20:33N 56°16' E 012°25'9 9.5
2014-Oct-24 19:34N 56°08' E 012°32'9 9.4
2014-Oct-24 18:33N 55°60' E 012°41'9 8.7
2014-Oct-24 17:33N 55°51' E 012°44'9 8.8
2014-Oct-24 16:33N 55°42' E 012°41'9 9.4
2014-Oct-24 15:33N 55°33' E 012°43'9 9.0
2014-Oct-24 14:33N 55°24' E 012°42'9 7.5
2014-Oct-24 13:20N 55°17' E 012°51'91 8.1
2014-Oct-24 02:09N 54°00' E 014°16'5 8.1
2014-Oct-24 01:33N 53°55' E 014°17'11 8.4
2014-Oct-24 00:17N 53°46' E 014°24'810.4
2014-Oct-23 23:33N 53°40' E 014°32'9 8.9
2014-Oct-23 22:33N 53°31' E 014°38'7 7.0
2014-Oct-23 21:33N 53°24' E 014°36'0 0.0
2014-Oct-23 20:34N 53°24' E 014°36'0 0.0
2014-Oct-23 19:33N 53°24' E 014°36'0 0.0
2014-Oct-23 18:34N 53°24' E 014°36'0 0.0
2014-Oct-23 17:33N 53°24' E 014°36'0 0.0
2014-Oct-23 16:33N 53°24' E 014°36'0 0.0
2014-Oct-23 15:33N 53°24' E 014°36'0 0.0
2014-Oct-23 14:33N 53°24' E 014°36'0 0.0
2014-Oct-23 13:34N 53°24' E 014°36'0 0.0
2014-Oct-23 12:33N 53°24' E 014°36'0 0.0
2014-Oct-23 11:34N 53°24' E 014°36'0 0.0
2014-Oct-23 10:33N 53°24' E 014°36'0 0.0
2014-Oct-23 09:33N 53°24' E 014°36'0 0.0
2014-Oct-23 08:34N 53°24' E 014°36'0 0.0
2014-Oct-23 07:34N 53°24' E 014°36'0 0.0
2014-Oct-23 06:33N 53°24' E 014°36'0 0.0
2014-Oct-23 05:34N 53°24' E 014°36'0 0.0
2014-Oct-23 04:34N 53°24' E 014°36'0 0.0
2014-Oct-23 03:34N 53°24' E 014°36'0 0.0
2014-Oct-23 02:34N 53°24' E 014°36'0 0.0
2014-Oct-23 01:33N 53°24' E 014°36'1 1.1
2014-Oct-23 00:33N 53°25' E 014°36'8 8.4
2014-Oct-22 23:34N 53°34' E 014°36'9 9.5
2014-Oct-22 22:34N 53°42' E 014°29'11 9.7
2014-Oct-22 21:28N 53°51' E 014°17'7 8.1
2014-Oct-22 20:33N 53°58' E 014°16'85 8.5
2014-Oct-22 10:32N 55°11' E 013°00'8 7.9
2014-Oct-22 09:31N 55°15' E 012°48'7 7.4
2014-Oct-22 08:33N 55°19' E 012°38'8 8.0
2014-Oct-22 07:34N 55°27' E 012°40'8 8.1
2014-Oct-22 06:33N 55°35' E 012°42'7 7.3
2014-Oct-22 05:33N 55°42' E 012°41'8 8.0
2014-Oct-22 04:33N 55°50' E 012°40'7 7.3
2014-Oct-22 03:33N 55°58' E 012°37'7 6.8
2014-Oct-22 02:33N 56°04' E 012°36'7 7.0
2014-Oct-22 01:33N 56°08' E 012°26'8 7.9
2014-Oct-22 00:34N 56°11' E 012°13'119 2.6
2014-Oct-20 03:31N 54°30' E 010°22'9 9.0
2014-Oct-20 02:33N 54°24' E 010°12'3 3.1
2014-Oct-20 01:34N 54°22' E 010°07'5 5.0
2014-Oct-20 00:34N 54°21' E 009°59'8 8.0
2014-Oct-19 23:33N 54°21' E 009°45'30 7.5
2014-Oct-19 19:29N 53°57' E 009°14'4 4.6
2014-Oct-19 18:33N 53°54' E 009°09'2 1.9
2014-Oct-19 17:34N 53°53' E 009°05'4 4.0
2014-Oct-19 16:33N 53°51' E 008°60'8 7.8
2014-Oct-19 15:33N 53°51' E 008°46'7 6.7
2014-Oct-19 14:33N 53°56' E 008°39'8 8.3
2014-Oct-19 13:33N 53°59' E 008°26'9 9.4
2014-Oct-19 12:33N 53°60' E 008°10'10 8.7
2014-Oct-19 11:22N 53°57' E 007°53'75 9.6
2014-Oct-19 03:33N 53°38' E 005°50'1010.5
2014-Oct-19 02:34N 53°35' E 005°33'1110.7
2014-Oct-19 01:33N 53°31' E 005°16'1110.7
2014-Oct-19 00:33N 53°28' E 004°59'149 9.3
2014-Oct-18 08:32N 51°34' E 002°22'1010.3
2014-Oct-18 07:34N 51°27' E 002°11'10 9.9
2014-Oct-18 06:33N 51°17' E 002°06'9 9.1
2014-Oct-18 05:33N 51°11' E 001°56'9 8.8
2014-Oct-18 04:33N 51°05' E 001°45'9 8.5
2014-Oct-18 03:34N 50°60' E 001°35'  
2014-Oct-15 13:30N 46°24' W 002°12'8 8.1
2014-Oct-15 12:32N 46°19' W 002°03'8 8.4
2014-Oct-15 11:33N 46°14' W 001°53'  
Track history (hours):
 
Tides and Currents Weather Stations Pressure Air Temp Water Temp Dewpoint Dewpoint Depression Visibility Wind Speed Wind Dir Waves Ship Positions

Plato

Last reported at 2014-Oct-24 20:33 UTC. Time now 2014-Oct-24 21:29 UTC.
Position N 56°16' E 012°25'.

Length 88 m; draft 4.3 m.

Type: Ship. MMSI: 314189000.

Date/timePositionNaut miles runAvg speedWind from/ knotsBaromVisibWave heightAir tempDewpointWater temp
2014-Oct-24 20:33N 56°16' E 012°25'9 9.5
2014-Oct-24 19:34N 56°08' E 012°32'9 9.4
2014-Oct-24 18:33N 55°60' E 012°41'9 8.7
2014-Oct-24 17:33N 55°51' E 012°44'9 8.8
2014-Oct-24 16:33N 55°42' E 012°41'9 9.4
2014-Oct-24 15:33N 55°33' E 012°43'9 9.0
2014-Oct-24 14:33N 55°24' E 012°42'9 7.5
2014-Oct-24 13:20N 55°17' E 012°51'91 8.1
2014-Oct-24 02:09N 54°00' E 014°16'5 8.1
2014-Oct-24 01:33N 53°55' E 014°17'11 8.4
2014-Oct-24 00:17N 53°46' E 014°24'810.4
2014-Oct-23 23:33N 53°40' E 014°32'9 8.9
2014-Oct-23 22:33N 53°31' E 014°38'7 7.0
2014-Oct-23 21:33N 53°24' E 014°36'0 0.0
2014-Oct-23 20:34N 53°24' E 014°36'0 0.0
2014-Oct-23 19:33N 53°24' E 014°36'0 0.0
2014-Oct-23 18:34N 53°24' E 014°36'0 0.0
2014-Oct-23 17:33N 53°24' E 014°36'0 0.0
2014-Oct-23 16:33N 53°24' E 014°36'0 0.0
2014-Oct-23 15:33N 53°24' E 014°36'0 0.0
2014-Oct-23 14:33N 53°24' E 014°36'0 0.0
2014-Oct-23 13:34N 53°24' E 014°36'0 0.0
2014-Oct-23 12:33N 53°24' E 014°36'0 0.0
2014-Oct-23 11:34N 53°24' E 014°36'0 0.0
2014-Oct-23 10:33N 53°24' E 014°36'0 0.0
2014-Oct-23 09:33N 53°24' E 014°36'0 0.0
2014-Oct-23 08:34N 53°24' E 014°36'0 0.0
2014-Oct-23 07:34N 53°24' E 014°36'0 0.0
2014-Oct-23 06:33N 53°24' E 014°36'0 0.0
2014-Oct-23 05:34N 53°24' E 014°36'0 0.0
2014-Oct-23 04:34N 53°24' E 014°36'0 0.0
2014-Oct-23 03:34N 53°24' E 014°36'0 0.0
2014-Oct-23 02:34N 53°24' E 014°36'0 0.0
2014-Oct-23 01:33N 53°24' E 014°36'1 1.1
2014-Oct-23 00:33N 53°25' E 014°36'8 8.4
2014-Oct-22 23:34N 53°34' E 014°36'9 9.5
2014-Oct-22 22:34N 53°42' E 014°29'11 9.7
2014-Oct-22 21:28N 53°51' E 014°17'7 8.1
2014-Oct-22 20:33N 53°58' E 014°16'85 8.5
2014-Oct-22 10:32N 55°11' E 013°00'8 7.9
2014-Oct-22 09:31N 55°15' E 012°48'7 7.4
2014-Oct-22 08:33N 55°19' E 012°38'8 8.0
2014-Oct-22 07:34N 55°27' E 012°40'8 8.1
2014-Oct-22 06:33N 55°35' E 012°42'7 7.3
2014-Oct-22 05:33N 55°42' E 012°41'8 8.0
2014-Oct-22 04:33N 55°50' E 012°40'7 7.3
2014-Oct-22 03:33N 55°58' E 012°37'7 6.8
2014-Oct-22 02:33N 56°04' E 012°36'7 7.0
2014-Oct-22 01:33N 56°08' E 012°26'8 7.9
2014-Oct-22 00:34N 56°11' E 012°13'119 2.6
2014-Oct-20 03:31N 54°30' E 010°22'9 9.0
2014-Oct-20 02:33N 54°24' E 010°12'3 3.1
2014-Oct-20 01:34N 54°22' E 010°07'5 5.0
2014-Oct-20 00:34N 54°21' E 009°59'8 8.0
2014-Oct-19 23:33N 54°21' E 009°45'30 7.5
2014-Oct-19 19:29N 53°57' E 009°14'4 4.6
2014-Oct-19 18:33N 53°54' E 009°09'2 1.9
2014-Oct-19 17:34N 53°53' E 009°05'4 4.0
2014-Oct-19 16:33N 53°51' E 008°60'8 7.8
2014-Oct-19 15:33N 53°51' E 008°46'7 6.7
2014-Oct-19 14:33N 53°56' E 008°39'8 8.3
2014-Oct-19 13:33N 53°59' E 008°26'9 9.4
2014-Oct-19 12:33N 53°60' E 008°10'10 8.7
2014-Oct-19 11:22N 53°57' E 007°53'75 9.6
2014-Oct-19 03:33N 53°38' E 005°50'1010.5
2014-Oct-19 02:34N 53°35' E 005°33'1110.7
2014-Oct-19 01:33N 53°31' E 005°16'1110.7
2014-Oct-19 00:33N 53°28' E 004°59'149 9.3
2014-Oct-18 08:32N 51°34' E 002°22'1010.3
2014-Oct-18 07:34N 51°27' E 002°11'10 9.9
2014-Oct-18 06:33N 51°17' E 002°06'9 9.1
2014-Oct-18 05:33N 51°11' E 001°56'9 8.8
2014-Oct-18 04:33N 51°05' E 001°45'9 8.5
2014-Oct-18 03:34N 50°60' E 001°35'  
2014-Oct-15 13:30N 46°24' W 002°12'8 8.1
2014-Oct-15 12:32N 46°19' W 002°03'8 8.4
2014-Oct-15 11:33N 46°14' W 001°53'  

Dump ship's entire track history